VLG46AX LEBL-LPPT
Flight info
| Callsign | VLG46AX |
|---|---|
| Flight time | 1h 36m |
| Altitude | 35000 |
| Route | SENIA DCT DORMI DCT CRETA DCT NEXAS DCT DISVU DCT ADUXO DCT CJN DCT PALIO DCT AKOKI DCT GOTOR DCT TLD DCT NATPA DCT MELON DCT CCS DCT ELVAR DCT UPULO |
| Aircraft | A321/M-SDE3FGHIRWY/LB1 |
Departure
| Time | 2026-05-06 22:38 |
|---|---|
| Airport | Josep Tarradellas Barcelona-El Prat Airport (LEBL) |
Arrival
| Time | 2026-05-07 00:14 |
|---|---|
| Airport | Lisbon Humberto Delgado Airport (LPPT) |
| Time | Latitude | Longitude | Altitude | Speed | Heading |
|---|---|---|---|---|---|
| 2026-05-06 22:05 | 41.29177 | 2.08011 | 19 ft | 0 kts | 155° |
| 2026-05-06 22:27 | 41.29184 | 2.08007 | 19 ft | 4 kts | 155° |
| 2026-05-06 22:27 | 41.29208 | 2.07992 | 20 ft | 4 kts | 150° |
| 2026-05-06 22:28 | 41.29229 | 2.07971 | 20 ft | 4 kts | 123° |
| 2026-05-06 22:28 | 41.29237 | 2.07940 | 22 ft | 4 kts | 76° |
| 2026-05-06 22:28 | 41.29233 | 2.07926 | 22 ft | 1 kts | 65° |
| 2026-05-06 22:28 | 41.29233 | 2.07925 | 22 ft | 0 kts | 65° |
| 2026-05-06 22:30 | 41.29233 | 2.07928 | 20 ft | 1 kts | 65° |
| 2026-05-06 22:30 | 41.29241 | 2.07950 | 19 ft | 4 kts | 66° |
| 2026-05-06 22:31 | 41.29256 | 2.07997 | 19 ft | 7 kts | 66° |
| 2026-05-06 22:31 | 41.29280 | 2.08065 | 19 ft | 10 kts | 65° |
| 2026-05-06 22:31 | 41.29312 | 2.08158 | 20 ft | 12 kts | 65° |
| 2026-05-06 22:31 | 41.29347 | 2.08260 | 19 ft | 11 kts | 65° |
| 2026-05-06 22:32 | 41.29369 | 2.08336 | 19 ft | 8 kts | 87° |
| 2026-05-06 22:32 | 41.29335 | 2.08394 | 19 ft | 9 kts | 148° |
| 2026-05-06 22:32 | 41.29282 | 2.08428 | 20 ft | 8 kts | 155° |
| 2026-05-06 22:32 | 41.29225 | 2.08462 | 20 ft | 11 kts | 156° |
| 2026-05-06 22:33 | 41.29143 | 2.08511 | 18 ft | 15 kts | 155° |
| 2026-05-06 22:33 | 41.29036 | 2.08575 | 17 ft | 17 kts | 155° |
| 2026-05-06 22:33 | 41.28932 | 2.08638 | 18 ft | 16 kts | 155° |
| 2026-05-06 22:33 | 41.28868 | 2.08704 | 17 ft | 10 kts | 107° |
| 2026-05-06 22:34 | 41.28881 | 2.08784 | 16 ft | 8 kts | 67° |
| 2026-05-06 22:34 | 41.28911 | 2.08874 | 17 ft | 14 kts | 66° |
| 2026-05-06 22:34 | 41.28961 | 2.09019 | 16 ft | 20 kts | 65° |
| 2026-05-06 22:34 | 41.29021 | 2.09198 | 18 ft | 23 kts | 66° |
| 2026-05-06 22:35 | 41.29093 | 2.09406 | 17 ft | 26 kts | 65° |
| 2026-05-06 22:35 | 41.29165 | 2.09616 | 18 ft | 24 kts | 65° |
| 2026-05-06 22:35 | 41.29234 | 2.09816 | 17 ft | 23 kts | 66° |
| 2026-05-06 22:35 | 41.29295 | 2.09963 | 17 ft | 17 kts | 60° |
| 2026-05-06 22:36 | 41.29343 | 2.10100 | 16 ft | 16 kts | 65° |
| 2026-05-06 22:36 | 41.29364 | 2.10220 | 29 ft | 11 kts | 107° |
| 2026-05-06 22:36 | 41.29303 | 2.10286 | 13 ft | 12 kts | 153° |
| 2026-05-06 22:36 | 41.29233 | 2.10312 | 14 ft | 9 kts | 193° |
| 2026-05-06 22:37 | 41.29202 | 2.10269 | 15 ft | 5 kts | 244° |
| 2026-05-06 22:37 | 41.29182 | 2.10214 | 17 ft | 13 kts | 245° |
| 2026-05-06 22:37 | 41.29056 | 2.09843 | 21 ft | 80 kts | 245° |
| 2026-05-06 22:37 | 41.28738 | 2.08915 | 21 ft | 138 kts | 245° |
| 2026-05-06 22:38 | 41.28287 | 2.07563 | 97 ft | 175 kts | 248° |
| 2026-05-06 22:38 | 41.27608 | 2.06259 | 706 ft | 176 kts | 213° |
| 2026-05-06 22:38 | 41.26427 | 2.05879 | 1318 ft | 179 kts | 181° |
| 2026-05-06 22:38 | 41.25185 | 2.05868 | 1913 ft | 178 kts | 181° |
| 2026-05-06 22:39 | 41.23899 | 2.05854 | 2150 ft | 192 kts | 181° |
| 2026-05-06 22:39 | 41.22502 | 2.05838 | 2347 ft | 209 kts | 181° |
| 2026-05-06 22:39 | 41.21002 | 2.05784 | 2600 ft | 223 kts | 186° |
| 2026-05-06 22:39 | 41.19481 | 2.05093 | 2747 ft | 245 kts | 217° |
| 2026-05-06 22:40 | 41.18429 | 2.03282 | 3192 ft | 256 kts | 251° |
| 2026-05-06 22:40 | 41.17921 | 2.01000 | 3905 ft | 260 kts | 254° |
| 2026-05-06 22:40 | 41.17389 | 1.98697 | 4662 ft | 263 kts | 253° |
| 2026-05-06 22:40 | 41.16834 | 1.96406 | 5368 ft | 266 kts | 252° |
| 2026-05-06 22:41 | 41.15678 | 1.91690 | 6816 ft | 272 kts | 252° |
| 2026-05-06 22:41 | 41.15100 | 1.89298 | 7537 ft | 273 kts | 253° |
| 2026-05-06 22:41 | 41.14523 | 1.86896 | 8273 ft | 274 kts | 253° |
| 2026-05-06 22:42 | 41.13934 | 1.84450 | 9021 ft | 275 kts | 254° |
| 2026-05-06 22:42 | 41.13362 | 1.82061 | 9731 ft | 276 kts | 254° |
| 2026-05-06 22:42 | 41.12777 | 1.79612 | 10294 ft | 284 kts | 254° |
| 2026-05-06 22:42 | 41.12159 | 1.77020 | 10427 ft | 306 kts | 254° |
| 2026-05-06 22:43 | 41.11498 | 1.74237 | 10551 ft | 326 kts | 254° |
| 2026-05-06 22:43 | 41.10788 | 1.71259 | 10867 ft | 339 kts | 253° |
| 2026-05-06 22:43 | 41.10077 | 1.68299 | 11417 ft | 344 kts | 253° |
| 2026-05-06 22:43 | 41.09337 | 1.65229 | 12025 ft | 347 kts | 253° |
| 2026-05-06 22:44 | 41.08606 | 1.62208 | 12634 ft | 350 kts | 253° |
| 2026-05-06 22:44 | 41.07855 | 1.59120 | 13248 ft | 354 kts | 253° |
| 2026-05-06 22:44 | 41.07099 | 1.56003 | 13843 ft | 357 kts | 253° |
| 2026-05-06 22:44 | 41.06337 | 1.52855 | 14410 ft | 360 kts | 253° |
| 2026-05-06 22:45 | 41.05569 | 1.49691 | 14963 ft | 362 kts | 252° |
| 2026-05-06 22:45 | 41.04796 | 1.46512 | 15544 ft | 363 kts | 252° |
| 2026-05-06 22:45 | 41.04022 | 1.43323 | 16121 ft | 365 kts | 252° |
| 2026-05-06 22:45 | 41.03241 | 1.40117 | 16689 ft | 366 kts | 252° |
| 2026-05-06 22:46 | 41.02457 | 1.36904 | 17254 ft | 368 kts | 252° |
| 2026-05-06 22:46 | 41.01666 | 1.33675 | 17805 ft | 369 kts | 252° |
| 2026-05-06 22:46 | 41.00872 | 1.30432 | 18338 ft | 371 kts | 252° |
| 2026-05-06 22:46 | 41.00077 | 1.27175 | 18799 ft | 372 kts | 252° |
| 2026-05-06 22:47 | 40.99278 | 1.23906 | 19249 ft | 374 kts | 252° |
| 2026-05-06 22:47 | 40.98475 | 1.20629 | 19721 ft | 375 kts | 252° |
| 2026-05-06 22:47 | 40.97667 | 1.17339 | 20169 ft | 377 kts | 252° |
| 2026-05-06 22:47 | 40.96856 | 1.14038 | 20620 ft | 378 kts | 252° |
| 2026-05-06 22:48 | 40.96037 | 1.10710 | 21013 ft | 381 kts | 252° |
| 2026-05-06 22:48 | 40.95211 | 1.07365 | 21441 ft | 383 kts | 252° |
| 2026-05-06 22:48 | 40.94379 | 1.04008 | 21874 ft | 385 kts | 252° |
| 2026-05-06 22:48 | 40.93542 | 1.00636 | 22310 ft | 387 kts | 252° |
| 2026-05-06 22:49 | 40.92702 | 0.97253 | 22737 ft | 388 kts | 252° |
| 2026-05-06 22:49 | 40.91857 | 0.93856 | 23175 ft | 390 kts | 252° |
| 2026-05-06 22:49 | 40.91007 | 0.90443 | 23576 ft | 391 kts | 252° |
| 2026-05-06 22:49 | 40.90154 | 0.87022 | 23930 ft | 392 kts | 251° |
| 2026-05-06 22:50 | 40.89312 | 0.83642 | 24308 ft | 393 kts | 251° |
| 2026-05-06 22:50 | 40.88458 | 0.80215 | 24682 ft | 393 kts | 251° |
| 2026-05-06 22:50 | 40.87603 | 0.76777 | 25039 ft | 394 kts | 252° |
| 2026-05-06 22:50 | 40.87014 | 0.73237 | 25360 ft | 397 kts | 262° |
| 2026-05-06 22:51 | 40.86897 | 0.69580 | 25688 ft | 400 kts | 269° |
| 2026-05-06 22:51 | 40.86932 | 0.65903 | 26036 ft | 401 kts | 268° |
| 2026-05-06 22:51 | 40.86965 | 0.62215 | 26389 ft | 402 kts | 268° |
| 2026-05-06 22:51 | 40.86995 | 0.58516 | 26748 ft | 403 kts | 268° |
| 2026-05-06 22:52 | 40.87021 | 0.54812 | 27099 ft | 404 kts | 268° |
| 2026-05-06 22:52 | 40.87045 | 0.51099 | 27433 ft | 405 kts | 268° |
| 2026-05-06 22:52 | 40.87065 | 0.47381 | 27750 ft | 405 kts | 268° |
| 2026-05-06 22:52 | 40.87084 | 0.43648 | 28074 ft | 406 kts | 268° |
| 2026-05-06 22:53 | 40.87102 | 0.39915 | 28378 ft | 407 kts | 268° |
| 2026-05-06 22:53 | 40.87119 | 0.36169 | 28650 ft | 409 kts | 268° |
| 2026-05-06 22:53 | 40.87135 | 0.32394 | 28855 ft | 412 kts | 268° |
| 2026-05-06 22:53 | 40.87152 | 0.28592 | 29155 ft | 414 kts | 268° |
| 2026-05-06 22:54 | 40.87168 | 0.24786 | 29440 ft | 415 kts | 268° |
| 2026-05-06 22:54 | 40.87182 | 0.20979 | 29867 ft | 413 kts | 268° |
| 2026-05-06 22:54 | 40.87199 | 0.17197 | 30252 ft | 411 kts | 268° |
| 2026-05-06 22:54 | 40.87213 | 0.13425 | 30590 ft | 410 kts | 268° |
| 2026-05-06 22:55 | 40.87222 | 0.09665 | 30918 ft | 409 kts | 267° |
| 2026-05-06 22:55 | 40.87228 | 0.05919 | 31257 ft | 407 kts | 267° |
| 2026-05-06 22:55 | 40.87235 | 0.02185 | 31589 ft | 406 kts | 267° |
| 2026-05-06 22:55 | 40.87242 | -0.01541 | 31924 ft | 405 kts | 268° |
| 2026-05-06 22:56 | 40.87246 | -0.04010 | 32080 ft | 406 kts | 268° |
| 2026-05-06 22:56 | 40.87250 | -0.07744 | 32359 ft | 407 kts | 267° |
| 2026-05-06 22:56 | 40.87255 | -0.11478 | 32660 ft | 406 kts | 267° |
| 2026-05-06 22:56 | 40.87258 | -0.15201 | 33005 ft | 405 kts | 267° |
| 2026-05-06 22:57 | 40.87257 | -0.18915 | 33343 ft | 403 kts | 267° |
| 2026-05-06 22:57 | 40.87253 | -0.22619 | 33691 ft | 402 kts | 267° |
| 2026-05-06 22:57 | 40.87251 | -0.26304 | 34009 ft | 401 kts | 267° |
| 2026-05-06 22:57 | 40.87251 | -0.29984 | 34261 ft | 400 kts | 267° |
| 2026-05-06 22:58 | 40.87252 | -0.33664 | 34474 ft | 401 kts | 267° |
| 2026-05-06 22:58 | 40.87250 | -0.37348 | 34670 ft | 401 kts | 267° |
| 2026-05-06 22:58 | 40.87244 | -0.41034 | 34872 ft | 402 kts | 267° |
| 2026-05-06 22:58 | 40.87236 | -0.44732 | 34987 ft | 402 kts | 267° |
| 2026-05-06 22:59 | 40.87230 | -0.48420 | 35019 ft | 401 kts | 267° |
| 2026-05-06 22:59 | 40.87209 | -0.55777 | 35019 ft | 400 kts | 267° |
| 2026-05-06 23:00 | 40.87182 | -0.63124 | 35021 ft | 400 kts | 267° |
| 2026-05-06 23:00 | 40.87154 | -0.70469 | 35024 ft | 400 kts | 267° |
| 2026-05-06 23:01 | 40.87027 | -0.77805 | 35037 ft | 398 kts | 261° |
| 2026-05-06 23:01 | 40.85592 | -0.84762 | 35019 ft | 396 kts | 249° |
| 2026-05-06 23:02 | 40.83691 | -0.91608 | 35012 ft | 397 kts | 249° |
| 2026-05-06 23:02 | 40.81802 | -0.98471 | 35010 ft | 398 kts | 249° |
| 2026-05-06 23:03 | 40.79897 | -1.05336 | 35011 ft | 398 kts | 249° |
| 2026-05-06 23:03 | 40.77983 | -1.12197 | 35009 ft | 399 kts | 249° |
| 2026-05-06 23:04 | 40.76069 | -1.19057 | 35007 ft | 399 kts | 249° |
| 2026-05-06 23:04 | 40.74138 | -1.25923 | 35004 ft | 400 kts | 249° |
| 2026-05-06 23:05 | 40.72208 | -1.32801 | 35006 ft | 400 kts | 249° |
| 2026-05-06 23:05 | 40.70280 | -1.39679 | 35004 ft | 400 kts | 249° |
| 2026-05-06 23:06 | 40.68337 | -1.46562 | 35006 ft | 401 kts | 249° |
| 2026-05-06 23:06 | 40.66387 | -1.53442 | 35004 ft | 401 kts | 249° |
| 2026-05-06 23:07 | 40.64438 | -1.60331 | 35003 ft | 402 kts | 249° |
| 2026-05-06 23:07 | 40.62481 | -1.67229 | 34999 ft | 403 kts | 249° |
| 2026-05-06 23:08 | 40.60512 | -1.74129 | 34993 ft | 403 kts | 249° |
| 2026-05-06 23:08 | 40.58533 | -1.81030 | 34996 ft | 403 kts | 249° |
| 2026-05-06 23:09 | 40.56554 | -1.87937 | 34987 ft | 403 kts | 249° |
| 2026-05-06 23:09 | 40.54570 | -1.94839 | 34967 ft | 404 kts | 249° |
| 2026-05-06 23:10 | 40.52574 | -2.01770 | 34960 ft | 406 kts | 249° |
| 2026-05-06 23:10 | 40.50564 | -2.08724 | 34961 ft | 407 kts | 249° |
| 2026-05-06 23:11 | 40.48561 | -2.15637 | 34955 ft | 408 kts | 249° |
| 2026-05-06 23:11 | 40.46533 | -2.22603 | 34960 ft | 409 kts | 249° |
| 2026-05-06 23:12 | 40.44508 | -2.29571 | 34934 ft | 409 kts | 250° |
| 2026-05-06 23:12 | 40.42780 | -2.36690 | 34935 ft | 410 kts | 254° |
| 2026-05-06 23:13 | 40.41256 | -2.43910 | 34940 ft | 411 kts | 254° |
| 2026-05-06 23:13 | 40.39702 | -2.51138 | 34937 ft | 412 kts | 253° |
| 2026-05-06 23:14 | 40.38086 | -2.58339 | 34942 ft | 412 kts | 253° |
| 2026-05-06 23:14 | 40.36436 | -2.65536 | 34940 ft | 412 kts | 253° |
| 2026-05-06 23:15 | 40.34792 | -2.72731 | 34951 ft | 412 kts | 253° |
| 2026-05-06 23:15 | 40.33150 | -2.79919 | 34945 ft | 411 kts | 253° |
| 2026-05-06 23:16 | 40.31502 | -2.87098 | 34947 ft | 411 kts | 253° |
| 2026-05-06 23:16 | 40.29853 | -2.94272 | 34938 ft | 411 kts | 253° |
| 2026-05-06 23:17 | 40.28207 | -3.01444 | 34937 ft | 411 kts | 253° |
| 2026-05-06 23:17 | 40.26558 | -3.08608 | 34933 ft | 411 kts | 253° |
| 2026-05-06 23:18 | 40.24904 | -3.15766 | 34927 ft | 411 kts | 253° |
| 2026-05-06 23:18 | 40.23238 | -3.22915 | 34921 ft | 411 kts | 252° |
| 2026-05-06 23:19 | 40.21564 | -3.30053 | 34923 ft | 410 kts | 252° |
| 2026-05-06 23:19 | 40.19885 | -3.37185 | 34904 ft | 410 kts | 252° |
| 2026-05-06 23:20 | 40.18214 | -3.44316 | 34913 ft | 410 kts | 252° |
| 2026-05-06 23:20 | 40.16546 | -3.51437 | 34915 ft | 409 kts | 252° |
| 2026-05-06 23:21 | 40.14873 | -3.58548 | 34915 ft | 409 kts | 252° |
| 2026-05-06 23:21 | 40.13190 | -3.65652 | 34916 ft | 409 kts | 252° |
| 2026-05-06 23:22 | 40.11505 | -3.72747 | 34915 ft | 409 kts | 252° |
| 2026-05-06 23:22 | 40.09811 | -3.79844 | 34900 ft | 409 kts | 252° |
| 2026-05-06 23:23 | 40.08117 | -3.86931 | 34909 ft | 409 kts | 251° |
| 2026-05-06 23:23 | 40.06418 | -3.94015 | 34909 ft | 409 kts | 251° |
| 2026-05-06 23:24 | 40.04711 | -4.01092 | 34907 ft | 409 kts | 251° |
| 2026-05-06 23:24 | 40.03007 | -4.08163 | 34907 ft | 408 kts | 251° |
| 2026-05-06 23:25 | 40.01311 | -4.15179 | 34906 ft | 408 kts | 251° |
| 2026-05-06 23:25 | 39.99588 | -4.22284 | 34904 ft | 408 kts | 251° |
| 2026-05-06 23:26 | 39.97881 | -4.29295 | 34910 ft | 408 kts | 250° |
| 2026-05-06 23:26 | 39.96150 | -4.36398 | 34910 ft | 409 kts | 250° |
| 2026-05-06 23:27 | 39.94434 | -4.43403 | 34886 ft | 409 kts | 250° |
| 2026-05-06 23:27 | 39.92686 | -4.50504 | 34896 ft | 409 kts | 250° |
| 2026-05-06 23:28 | 39.90949 | -4.57563 | 34913 ft | 409 kts | 250° |
| 2026-05-06 23:28 | 39.89213 | -4.64565 | 34909 ft | 409 kts | 250° |
| 2026-05-06 23:29 | 39.87459 | -4.71619 | 34910 ft | 410 kts | 250° |
| 2026-05-06 23:29 | 39.85706 | -4.78674 | 34904 ft | 410 kts | 250° |
| 2026-05-06 23:30 | 39.83958 | -4.85728 | 34905 ft | 410 kts | 250° |
| 2026-05-06 23:30 | 39.82203 | -4.92780 | 34900 ft | 410 kts | 250° |
| 2026-05-06 23:31 | 39.80432 | -4.99819 | 34905 ft | 409 kts | 250° |
| 2026-05-06 23:31 | 39.78657 | -5.06853 | 34895 ft | 410 kts | 250° |
| 2026-05-06 23:32 | 39.76879 | -5.13897 | 34892 ft | 410 kts | 250° |
| 2026-05-06 23:32 | 39.75100 | -5.20946 | 34891 ft | 410 kts | 250° |
| 2026-05-06 23:33 | 39.73312 | -5.27991 | 34891 ft | 410 kts | 249° |
| 2026-05-06 23:33 | 39.71521 | -5.35026 | 34898 ft | 410 kts | 249° |
| 2026-05-06 23:34 | 39.69721 | -5.42070 | 34886 ft | 411 kts | 249° |
| 2026-05-06 23:34 | 39.67911 | -5.49124 | 34883 ft | 412 kts | 249° |
| 2026-05-06 23:35 | 39.66097 | -5.56188 | 34875 ft | 413 kts | 249° |
| 2026-05-06 23:35 | 39.64280 | -5.63253 | 34879 ft | 413 kts | 249° |
| 2026-05-06 23:36 | 39.62458 | -5.70323 | 34884 ft | 413 kts | 249° |
| 2026-05-06 23:36 | 39.60630 | -5.77395 | 34883 ft | 414 kts | 250° |
| 2026-05-06 23:37 | 39.58801 | -5.84430 | 34881 ft | 415 kts | 249° |
| 2026-05-06 23:37 | 39.56950 | -5.91522 | 34881 ft | 415 kts | 249° |
| 2026-05-06 23:38 | 39.55098 | -5.98619 | 34880 ft | 416 kts | 249° |
| 2026-05-06 23:38 | 39.53241 | -6.05721 | 34882 ft | 416 kts | 249° |
| 2026-05-06 23:39 | 39.51376 | -6.12816 | 34890 ft | 416 kts | 249° |
| 2026-05-06 23:39 | 39.49504 | -6.19913 | 34884 ft | 416 kts | 249° |
| 2026-05-06 23:40 | 39.47628 | -6.27007 | 34885 ft | 417 kts | 250° |
| 2026-05-06 23:40 | 39.45760 | -6.34105 | 34885 ft | 417 kts | 250° |
| 2026-05-06 23:41 | 39.43883 | -6.41198 | 34888 ft | 417 kts | 249° |
| 2026-05-06 23:41 | 39.41998 | -6.48290 | 34907 ft | 417 kts | 249° |
| 2026-05-06 23:42 | 39.40103 | -6.55368 | 34909 ft | 417 kts | 249° |
| 2026-05-06 23:42 | 39.38202 | -6.62440 | 34892 ft | 416 kts | 249° |
| 2026-05-06 23:43 | 39.36305 | -6.69502 | 34900 ft | 416 kts | 249° |
| 2026-05-06 23:43 | 39.34727 | -6.75370 | 34894 ft | 416 kts | 249° |
| 2026-05-06 23:44 | 39.32824 | -6.82430 | 34887 ft | 416 kts | 249° |
| 2026-05-06 23:44 | 39.30911 | -6.89481 | 34910 ft | 416 kts | 249° |
| 2026-05-06 23:45 | 39.28680 | -6.97675 | 34909 ft | 416 kts | 249° |
| 2026-05-06 23:45 | 39.27069 | -7.03581 | 34914 ft | 416 kts | 249° |
| 2026-05-06 23:46 | 39.25145 | -7.10625 | 34906 ft | 416 kts | 249° |
| 2026-05-06 23:46 | 39.23216 | -7.17685 | 34138 ft | 422 kts | 249° |
| 2026-05-06 23:46 | 39.22230 | -7.21266 | 33287 ft | 425 kts | 247° |
| 2026-05-06 23:47 | 39.20982 | -7.24701 | 32594 ft | 423 kts | 241° |
| 2026-05-06 23:47 | 39.19602 | -7.28068 | 31716 ft | 426 kts | 240° |
| 2026-05-06 23:47 | 39.18215 | -7.31457 | 30935 ft | 428 kts | 240° |
| 2026-05-06 23:47 | 39.16830 | -7.34844 | 30319 ft | 426 kts | 240° |
| 2026-05-06 23:48 | 39.15461 | -7.38200 | 29749 ft | 421 kts | 240° |
| 2026-05-06 23:48 | 39.14104 | -7.41528 | 29118 ft | 418 kts | 240° |
| 2026-05-06 23:48 | 39.12754 | -7.44826 | 28476 ft | 414 kts | 240° |
| 2026-05-06 23:48 | 39.11412 | -7.48099 | 27733 ft | 413 kts | 240° |
| 2026-05-06 23:49 | 39.10095 | -7.51303 | 27235 ft | 407 kts | 240° |
| 2026-05-06 23:49 | 39.08756 | -7.54556 | 26663 ft | 404 kts | 240° |
| 2026-05-06 23:49 | 39.07451 | -7.57726 | 26145 ft | 399 kts | 240° |
| 2026-05-06 23:49 | 39.06177 | -7.60824 | 25649 ft | 395 kts | 240° |
| 2026-05-06 23:50 | 39.04895 | -7.63934 | 25145 ft | 391 kts | 240° |
| 2026-05-06 23:50 | 39.02459 | -7.70053 | 24383 ft | 378 kts | 242° |
| 2026-05-06 23:50 | 39.01313 | -7.73093 | 23857 ft | 377 kts | 243° |
| 2026-05-06 23:51 | 39.00189 | -7.76111 | 23448 ft | 372 kts | 243° |
| 2026-05-06 23:51 | 38.99071 | -7.79096 | 22993 ft | 369 kts | 243° |
| 2026-05-06 23:51 | 38.97952 | -7.82057 | 22593 ft | 367 kts | 242° |
| 2026-05-06 23:51 | 38.96833 | -7.85002 | 22190 ft | 365 kts | 242° |
| 2026-05-06 23:52 | 38.95716 | -7.87924 | 21790 ft | 364 kts | 242° |
| 2026-05-06 23:52 | 38.94601 | -7.90830 | 21392 ft | 362 kts | 242° |
| 2026-05-06 23:52 | 38.93491 | -7.93717 | 20998 ft | 359 kts | 242° |
| 2026-05-06 23:52 | 38.92403 | -7.96546 | 20837 ft | 347 kts | 243° |
| 2026-05-06 23:53 | 38.91357 | -7.99275 | 20705 ft | 335 kts | 243° |
| 2026-05-06 23:53 | 38.90262 | -8.01862 | 20475 ft | 325 kts | 234° |
| 2026-05-06 23:53 | 38.88867 | -8.04106 | 20229 ft | 319 kts | 230° |
| 2026-05-06 23:53 | 38.87441 | -8.06292 | 19981 ft | 319 kts | 230° |
| 2026-05-06 23:54 | 38.86026 | -8.08471 | 19680 ft | 317 kts | 230° |
| 2026-05-06 23:54 | 38.84617 | -8.10645 | 19370 ft | 316 kts | 230° |
| 2026-05-06 23:54 | 38.83214 | -8.12808 | 19058 ft | 315 kts | 230° |
| 2026-05-06 23:54 | 38.81816 | -8.14964 | 18752 ft | 314 kts | 230° |
| 2026-05-06 23:55 | 38.80424 | -8.17114 | 18438 ft | 313 kts | 230° |
| 2026-05-06 23:55 | 38.79036 | -8.19254 | 18118 ft | 312 kts | 230° |
| 2026-05-06 23:55 | 38.77651 | -8.21388 | 17794 ft | 311 kts | 230° |
| 2026-05-06 23:55 | 38.76273 | -8.23513 | 17488 ft | 310 kts | 230° |
| 2026-05-06 23:56 | 38.74899 | -8.25632 | 17167 ft | 309 kts | 230° |
| 2026-05-06 23:56 | 38.73529 | -8.27738 | 16879 ft | 307 kts | 230° |
| 2026-05-06 23:56 | 38.72160 | -8.29839 | 16575 ft | 306 kts | 230° |
| 2026-05-06 23:56 | 38.70798 | -8.31928 | 16280 ft | 305 kts | 230° |
| 2026-05-06 23:57 | 38.69440 | -8.34010 | 15970 ft | 304 kts | 230° |
| 2026-05-06 23:57 | 38.68089 | -8.36082 | 15677 ft | 303 kts | 230° |
| 2026-05-06 23:57 | 38.66738 | -8.38151 | 15379 ft | 302 kts | 230° |
| 2026-05-06 23:57 | 38.65389 | -8.40212 | 15081 ft | 301 kts | 230° |
| 2026-05-06 23:58 | 38.64046 | -8.42266 | 14782 ft | 300 kts | 230° |
| 2026-05-06 23:58 | 38.62708 | -8.44310 | 14488 ft | 300 kts | 230° |
| 2026-05-06 23:58 | 38.61373 | -8.46350 | 14197 ft | 298 kts | 230° |
| 2026-05-06 23:58 | 38.60044 | -8.48380 | 13898 ft | 298 kts | 230° |
| 2026-05-06 23:59 | 38.58715 | -8.50404 | 13585 ft | 296 kts | 230° |
| 2026-05-06 23:59 | 38.57397 | -8.52413 | 13316 ft | 292 kts | 230° |
| 2026-05-06 23:59 | 38.56117 | -8.54361 | 13181 ft | 281 kts | 230° |
| 2026-05-06 23:59 | 38.54875 | -8.56249 | 12965 ft | 274 kts | 229° |
| 2026-05-07 00:00 | 38.53646 | -8.58093 | 12694 ft | 271 kts | 229° |
| 2026-05-07 00:00 | 38.52420 | -8.59899 | 12434 ft | 268 kts | 228° |
| 2026-05-07 00:00 | 38.51196 | -8.61692 | 12177 ft | 267 kts | 228° |
| 2026-05-07 00:00 | 38.49975 | -8.63476 | 11920 ft | 266 kts | 228° |
| 2026-05-07 00:01 | 38.48759 | -8.65255 | 11666 ft | 266 kts | 228° |
| 2026-05-07 00:01 | 38.47545 | -8.67029 | 11413 ft | 265 kts | 227° |
| 2026-05-07 00:01 | 38.46336 | -8.68797 | 11162 ft | 264 kts | 228° |
| 2026-05-07 00:01 | 38.45131 | -8.70561 | 10917 ft | 263 kts | 227° |
| 2026-05-07 00:02 | 38.43931 | -8.72320 | 10669 ft | 262 kts | 228° |
| 2026-05-07 00:02 | 38.42736 | -8.74072 | 10421 ft | 261 kts | 228° |
| 2026-05-07 00:02 | 38.41545 | -8.75819 | 10180 ft | 262 kts | 228° |
| 2026-05-07 00:02 | 38.40348 | -8.77570 | 9943 ft | 261 kts | 227° |
| 2026-05-07 00:03 | 38.39162 | -8.79304 | 9806 ft | 260 kts | 227° |
| 2026-05-07 00:03 | 38.37975 | -8.81034 | 9608 ft | 259 kts | 227° |
| 2026-05-07 00:03 | 38.36789 | -8.82760 | 9365 ft | 259 kts | 226° |
| 2026-05-07 00:03 | 38.35608 | -8.84476 | 9130 ft | 257 kts | 228° |
| 2026-05-07 00:04 | 38.34430 | -8.86192 | 8898 ft | 258 kts | 228° |
| 2026-05-07 00:04 | 38.33563 | -8.88161 | 8655 ft | 257 kts | 256° |
| 2026-05-07 00:04 | 38.33577 | -8.90433 | 8424 ft | 261 kts | 284° |
| 2026-05-07 00:04 | 38.34496 | -8.92421 | 8163 ft | 265 kts | 313° |
| 2026-05-07 00:05 | 38.35825 | -8.94056 | 7892 ft | 265 kts | 315° |
| 2026-05-07 00:05 | 38.37159 | -8.95676 | 7633 ft | 265 kts | 315° |
| 2026-05-07 00:05 | 38.38495 | -8.97297 | 7372 ft | 264 kts | 315° |
| 2026-05-07 00:05 | 38.39805 | -8.98890 | 7167 ft | 257 kts | 315° |
| 2026-05-07 00:06 | 38.41082 | -9.00459 | 6890 ft | 253 kts | 314° |
| 2026-05-07 00:06 | 38.42326 | -9.02027 | 6660 ft | 251 kts | 313° |
| 2026-05-07 00:06 | 38.43556 | -9.03597 | 6440 ft | 249 kts | 313° |
| 2026-05-07 00:06 | 38.44776 | -9.05162 | 6214 ft | 249 kts | 313° |
| 2026-05-07 00:07 | 38.45991 | -9.06721 | 5992 ft | 247 kts | 313° |
| 2026-05-07 00:07 | 38.47199 | -9.08269 | 5768 ft | 245 kts | 312° |
| 2026-05-07 00:07 | 38.48394 | -9.09798 | 5560 ft | 243 kts | 313° |
| 2026-05-07 00:07 | 38.49588 | -9.11323 | 5353 ft | 242 kts | 313° |
| 2026-05-07 00:08 | 38.50770 | -9.12832 | 5126 ft | 239 kts | 314° |
| 2026-05-07 00:08 | 38.51938 | -9.14326 | 4929 ft | 236 kts | 314° |
| 2026-05-07 00:08 | 38.53093 | -9.15804 | 4703 ft | 234 kts | 314° |
| 2026-05-07 00:08 | 38.54235 | -9.17266 | 4511 ft | 231 kts | 314° |
| 2026-05-07 00:09 | 38.55366 | -9.18717 | 4315 ft | 232 kts | 315° |
| 2026-05-07 00:09 | 38.56508 | -9.20182 | 4106 ft | 233 kts | 315° |
| 2026-05-07 00:09 | 38.57677 | -9.21574 | 3897 ft | 226 kts | 326° |
| 2026-05-07 00:09 | 38.59070 | -9.22435 | 3724 ft | 219 kts | 345° |
| 2026-05-07 00:10 | 38.60545 | -9.22642 | 3506 ft | 211 kts | 4° |
| 2026-05-07 00:10 | 38.61926 | -9.22236 | 3387 ft | 195 kts | 20° |
| 2026-05-07 00:10 | 38.63128 | -9.21596 | 3209 ft | 181 kts | 20° |
| 2026-05-07 00:10 | 38.64264 | -9.20992 | 2984 ft | 172 kts | 20° |
| 2026-05-07 00:11 | 38.65344 | -9.20417 | 2782 ft | 166 kts | 20° |
| 2026-05-07 00:11 | 38.66389 | -9.19861 | 2555 ft | 160 kts | 20° |
| 2026-05-07 00:11 | 38.67397 | -9.19324 | 2364 ft | 155 kts | 20° |
| 2026-05-07 00:11 | 38.68381 | -9.18800 | 2166 ft | 148 kts | 20° |
| 2026-05-07 00:12 | 38.69331 | -9.18293 | 1938 ft | 147 kts | 20° |
| 2026-05-07 00:12 | 38.70273 | -9.17791 | 1751 ft | 146 kts | 20° |
| 2026-05-07 00:12 | 38.71210 | -9.17292 | 1552 ft | 145 kts | 20° |
| 2026-05-07 00:12 | 38.72149 | -9.16791 | 1352 ft | 147 kts | 20° |
| 2026-05-07 00:13 | 38.73094 | -9.16286 | 1150 ft | 146 kts | 19° |
| 2026-05-07 00:13 | 38.74018 | -9.15793 | 950 ft | 145 kts | 21° |
| 2026-05-07 00:13 | 38.74952 | -9.15291 | 740 ft | 146 kts | 20° |
| 2026-05-07 00:13 | 38.75897 | -9.14783 | 579 ft | 145 kts | 18° |
| 2026-05-07 00:14 | 38.76832 | -9.14284 | 365 ft | 145 kts | 18° |
| 2026-05-07 00:14 | 38.77687 | -9.13829 | 366 ft | 116 kts | 22° |
| 2026-05-07 00:14 | 38.78253 | -9.13531 | 367 ft | 62 kts | 22° |
| 2026-05-07 00:14 | 38.78498 | -9.13396 | 363 ft | 17 kts | 29° |
| 2026-05-07 00:15 | 38.78527 | -9.13274 | 363 ft | 14 kts | 120° |
| 2026-05-07 00:15 | 38.78446 | -9.13225 | 361 ft | 13 kts | 173° |
| 2026-05-07 00:15 | 38.78360 | -9.13243 | 360 ft | 12 kts | 201° |
| 2026-05-07 00:15 | 38.78284 | -9.13282 | 362 ft | 11 kts | 202° |
| 2026-05-07 00:16 | 38.78214 | -9.13318 | 363 ft | 11 kts | 203° |
| 2026-05-07 00:16 | 38.78132 | -9.13363 | 364 ft | 13 kts | 203° |
| 2026-05-07 00:16 | 38.78051 | -9.13407 | 358 ft | 14 kts | 203° |
| 2026-05-07 00:16 | 38.77935 | -9.13469 | 356 ft | 19 kts | 203° |
| 2026-05-07 00:17 | 38.77815 | -9.13534 | 357 ft | 18 kts | 202° |
| 2026-05-07 00:17 | 38.77703 | -9.13593 | 363 ft | 15 kts | 200° |
| 2026-05-07 00:17 | 38.77598 | -9.13583 | 355 ft | 16 kts | 168° |
| 2026-05-07 00:17 | 38.77486 | -9.13553 | 355 ft | 17 kts | 168° |
| 2026-05-07 00:18 | 38.77369 | -9.13521 | 352 ft | 17 kts | 168° |
| 2026-05-07 00:18 | 38.77257 | -9.13491 | 346 ft | 16 kts | 168° |
| 2026-05-07 00:18 | 38.77155 | -9.13464 | 346 ft | 14 kts | 168° |
| 2026-05-07 00:18 | 38.77060 | -9.13439 | 345 ft | 13 kts | 168° |
| 2026-05-07 00:19 | 38.76971 | -9.13416 | 351 ft | 13 kts | 168° |
| 2026-05-07 00:19 | 38.76885 | -9.13394 | 346 ft | 12 kts | 168° |
| 2026-05-07 00:19 | 38.76805 | -9.13372 | 343 ft | 11 kts | 169° |
| 2026-05-07 00:19 | 38.76738 | -9.13391 | 352 ft | 9 kts | 208° |
| 2026-05-07 00:20 | 38.76677 | -9.13442 | 348 ft | 14 kts | 217° |
| 2026-05-07 00:20 | 38.76641 | -9.13561 | 353 ft | 14 kts | 258° |
| 2026-05-07 00:20 | 38.76621 | -9.13647 | 349 ft | 7 kts | 225° |
| 2026-05-07 00:20 | 38.76587 | -9.13660 | 348 ft | 4 kts | 185° |
| 2026-05-07 00:21 | 38.76553 | -9.13686 | 356 ft | 8 kts | 234° |
| 2026-05-07 00:21 | 38.76526 | -9.13743 | 354 ft | 7 kts | 210° |
| 2026-05-07 00:21 | 38.76486 | -9.13742 | 353 ft | 5 kts | 167° |
| 2026-05-07 00:21 | 38.76465 | -9.13736 | 351 ft | 1 kts | 168° |